Ayvacik, Turkey
Current Conditions -  °F | °C
As of 3:50 PM on Thursday 18 Dec 2014 (Local Time) from LTFD Reporting Station
Scattered Clouds Scattered Clouds  
Wind Chill: 61°   Ceiling: Unl
Heat Index: 61°   Visibility: 6mi
Dew Point: 48°   Wind: 7mph
Humidity: 63%   Direction: 280°W
Pressure: 29.97"   Gusts: NA
Location:  39.6°N, 26.4°E
Report Text: LTFD 181250Z 28006KT 9999 SCT027 16/09 Q1015
Loading
Personal Weather Stations






























Interactive Weather Map New forecast layout! Learn more

10-Day Weather Forecast

Advertisements
Track Severe Weather on mobile